createdAt,value
2022-11-25T00:00:49.186Z,96896.63
2022-11-25T00:03:15.881Z,96900.94
2022-11-25T00:05:42.576Z,96908.75
2022-11-25T00:08:09.209Z,96910.81
2022-11-25T00:10:35.826Z,96905.47
2022-11-25T00:13:02.403Z,96896.84
2022-11-25T00:15:29.025Z,96881.59
2022-11-25T00:17:55.661Z,96885.31
2022-11-25T00:20:22.298Z,96880.56
2022-11-25T00:22:48.909Z,96883.25
2022-11-25T00:25:15.531Z,96884.47
2022-11-25T00:27:42.165Z,96889.03
2022-11-25T00:30:09.180Z,96887.97
2022-11-25T00:32:35.855Z,96889.22
2022-11-25T00:35:02.466Z,96883.03
2022-11-25T00:37:29.085Z,96888.59
2022-11-25T00:39:55.730Z,96882.63
2022-11-25T00:42:22.407Z,96877.47
2022-11-25T00:44:49.001Z,96875.63
2022-11-25T00:47:17.341Z,96861.03
2022-11-25T00:49:45.290Z,96861.44
2022-11-25T00:52:22.458Z,96855.03
2022-11-25T00:54:49.221Z,96861.00
2022-11-25T00:57:16.591Z,96859.78
2022-11-25T00:59:43.233Z,96859.56
2022-11-25T01:02:13.495Z,96858.09
2022-11-25T01:04:40.166Z,96853.56
2022-11-25T01:07:06.875Z,96851.13
2022-11-25T01:09:33.527Z,96853.97
2022-11-25T01:12:00.110Z,96853.81
2022-11-25T01:14:26.704Z,96858.09
2022-11-25T01:16:53.393Z,96857.91
2022-11-25T01:19:20.268Z,96861.19
2022-11-25T01:21:47.002Z,96863.47
2022-11-25T01:24:14.470Z,96880.13
2022-11-25T01:26:41.317Z,96877.88
2022-11-25T01:29:12.252Z,96880.78
2022-11-25T01:31:38.972Z,96877.25
2022-11-25T01:34:15.245Z,96876.25
2022-11-25T01:36:41.937Z,96877.91
2022-11-25T01:39:08.525Z,96876.84
2022-11-25T01:41:35.220Z,96881.19
2022-11-25T01:44:08.749Z,96881.56
2022-11-25T01:46:55.223Z,96882.44
2022-11-25T01:49:47.712Z,96871.50
2022-11-25T01:52:18.821Z,96870.25
2022-11-25T01:54:57.346Z,96860.97
2022-11-25T01:57:26.644Z,96856.47
2022-11-25T01:59:53.965Z,96863.22
2022-11-25T02:02:20.822Z,96867.31
2022-11-25T02:04:47.501Z,96869.81
2022-11-25T02:07:25.302Z,96876.78
2022-11-25T02:09:51.958Z,96874.94
2022-11-25T02:12:18.581Z,96878.25
2022-11-25T02:14:45.442Z,96871.44
2022-11-25T02:17:12.148Z,96874.75
2022-11-25T02:19:59.084Z,96877.38
2022-11-25T02:22:44.291Z,96882.34
2022-11-25T02:25:16.375Z,96883.38
2022-11-25T02:27:43.618Z,96884.81
2022-11-25T02:30:10.585Z,96890.41
2022-11-25T02:32:42.242Z,96898.00
2022-11-25T02:35:50.980Z,96904.19
2022-11-25T02:38:53.717Z,96898.66
2022-11-25T02:41:26.902Z,96898.25
2022-11-25T02:43:53.487Z,96891.25
2022-11-25T02:46:22.719Z,96891.47
2022-11-25T02:51:36.754Z,96881.81
2022-11-25T02:54:03.407Z,96880.38
2022-11-25T02:56:31.347Z,96885.31
2022-11-25T02:58:58.104Z,96885.72
2022-11-25T03:01:24.792Z,96874.59
2022-11-25T03:03:51.485Z,96880.75
2022-11-25T03:06:18.168Z,96882.19
2022-11-25T03:08:44.781Z,96889.22
2022-11-25T03:11:11.384Z,96886.72
2022-11-25T03:13:38.768Z,96886.34
2022-11-25T03:16:05.487Z,96887.78
2022-11-25T03:18:32.246Z,96889.03
2022-11-25T03:20:58.900Z,96883.88
2022-11-25T03:23:25.645Z,96880.38
2022-11-25T03:25:52.242Z,96876.06
2022-11-25T03:28:18.825Z,96877.50
2022-11-25T03:30:45.416Z,96868.03
2022-11-25T03:33:12.040Z,96881.16
2022-11-25T03:35:38.670Z,96875.19
2022-11-25T03:38:05.278Z,96880.53
2022-11-25T03:40:31.871Z,96877.63
2022-11-25T03:42:58.496Z,96879.63
2022-11-25T03:45:25.099Z,96879.63
2022-11-25T03:47:51.743Z,96873.03
2022-11-25T03:50:18.380Z,96869.97
2022-11-25T03:52:45.001Z,96874.03
2022-11-25T03:55:11.649Z,96870.13
2022-11-25T03:57:38.297Z,96877.47
2022-11-25T04:00:05.468Z,96881.81
2022-11-25T04:02:32.139Z,96880.59
2022-11-25T04:04:58.754Z,96875.47
2022-11-25T04:07:25.426Z,96881.59
2022-11-25T04:09:52.065Z,96890.34
2022-11-25T04:12:18.668Z,96889.13
2022-11-25T04:14:45.257Z,96887.81
2022-11-25T04:17:11.921Z,96886.66
2022-11-25T04:19:38.656Z,96879.44
2022-11-25T04:22:05.241Z,96892.44
2022-11-25T04:24:31.832Z,96889.81
2022-11-25T04:26:58.529Z,96897.16
2022-11-25T04:29:25.118Z,96908.31
2022-11-25T04:31:51.703Z,96908.94
2022-11-25T04:34:18.276Z,96908.56
2022-11-25T04:36:44.907Z,96916.19
2022-11-25T04:39:11.502Z,96918.09
2022-11-25T04:41:38.080Z,96919.09
2022-11-25T04:44:04.770Z,96924.03
2022-11-25T04:46:39.714Z,96925.50
2022-11-25T04:49:06.483Z,96921.31
2022-11-25T04:51:33.088Z,96919.69
2022-11-25T04:53:59.903Z,96917.88
2022-11-25T04:56:26.500Z,96925.06
2022-11-25T04:58:53.159Z,96918.56
2022-11-25T05:01:19.847Z,96916.50
2022-11-25T05:03:53.006Z,96921.03
2022-11-25T05:06:21.378Z,96916.47
2022-11-25T05:08:50.806Z,96908.81
2022-11-25T05:11:17.427Z,96915.41
2022-11-25T05:13:44.076Z,96909.63
2022-11-25T05:16:10.804Z,96909.50
2022-11-25T05:18:37.481Z,96911.78
2022-11-25T05:21:04.282Z,96910.31
2022-11-25T05:23:31.103Z,96895.97
2022-11-25T05:26:04.123Z,96892.69
2022-11-25T05:28:30.758Z,96891.03
2022-11-25T05:30:57.382Z,96885.06
2022-11-25T05:33:24.008Z,96891.03
2022-11-25T05:35:57.280Z,96891.25
2022-11-25T05:38:23.882Z,96903.81
2022-11-25T05:40:50.503Z,96897.41
2022-11-25T05:43:17.295Z,96886.72
2022-11-25T05:45:43.911Z,96900.09
2022-11-25T05:48:10.530Z,96895.97
2022-11-25T05:50:37.318Z,96899.88
2022-11-25T05:53:03.945Z,96909.09
2022-11-25T05:55:30.546Z,96911.56
2022-11-25T05:57:58.753Z,96928.56
2022-11-25T06:00:26.904Z,96931.00
2022-11-25T06:02:53.849Z,96939.84
2022-11-25T06:05:20.675Z,96943.88
2022-11-25T06:07:47.430Z,96946.09
2022-11-25T06:10:14.236Z,96937.41
2022-11-25T06:12:40.860Z,96937.19
2022-11-25T06:15:08.002Z,96936.34
2022-11-25T06:17:34.573Z,96940.28
2022-11-25T06:20:01.241Z,96947.91
2022-11-25T06:22:27.844Z,96944.38
2022-11-25T06:25:00.346Z,96950.78
2022-11-25T06:27:50.172Z,96952.78
2022-11-25T06:30:16.709Z,96954.41
2022-11-25T06:32:43.446Z,96959.16
2022-11-25T06:35:10.044Z,96965.13
2022-11-25T06:37:36.639Z,96958.69
2022-11-25T06:40:03.445Z,96967.34
2022-11-25T06:42:30.502Z,96966.09
2022-11-25T06:44:57.141Z,96975.75
2022-11-25T06:47:23.740Z,96977.84
2022-11-25T06:49:50.359Z,96983.22
2022-11-25T06:52:17.174Z,96986.16
2022-11-25T06:54:43.835Z,96991.50
2022-11-25T06:57:11.074Z,96997.22
2022-11-25T06:59:37.716Z,96997.53
2022-11-25T07:02:04.478Z,97001.91
2022-11-25T07:04:31.125Z,96998.06
2022-11-25T07:06:57.738Z,96997.81
2022-11-25T07:09:24.332Z,97004.03
2022-11-25T07:11:50.959Z,97010.03
2022-11-25T07:14:17.565Z,97018.50
2022-11-25T07:16:44.980Z,97006.56
2022-11-25T07:19:12.604Z,97010.09
2022-11-25T07:21:39.342Z,97014.03
2022-11-25T07:24:06.904Z,97015.09
2022-11-25T07:26:35.029Z,97007.47
2022-11-25T07:29:02.749Z,97007.69
2022-11-25T07:31:34.462Z,97003.38
2022-11-25T07:34:03.100Z,97005.03
2022-11-25T07:36:29.909Z,97011.44
2022-11-25T07:38:57.869Z,97011.66
2022-11-25T07:41:25.108Z,97006.31
2022-11-25T07:43:53.540Z,97017.66
2022-11-25T07:46:26.729Z,97011.91
2022-11-25T07:48:54.773Z,97012.53
2022-11-25T07:51:25.164Z,97021.63
2022-11-25T07:53:52.839Z,97027.19
2022-11-25T07:56:19.476Z,97030.88
2022-11-25T07:58:46.353Z,97042.41
2022-11-25T08:01:14.304Z,97032.16
2022-11-25T08:03:41.738Z,97029.69
2022-11-25T08:06:12.693Z,97029.25
2022-11-25T08:08:39.571Z,97035.63
2022-11-25T08:11:16.847Z,97036.06
2022-11-25T08:13:43.499Z,97034.00
2022-11-25T08:16:12.195Z,97050.28
2022-11-25T08:18:39.213Z,97046.78
2022-11-25T08:21:06.888Z,97051.31
2022-11-25T08:23:33.734Z,97061.81
2022-11-25T08:26:07.952Z,97065.94
2022-11-25T08:28:34.982Z,97076.88
2022-11-25T08:31:05.375Z,97076.47
2022-11-25T08:33:32.136Z,97083.06
2022-11-25T08:35:58.773Z,97085.34
2022-11-25T08:38:25.420Z,97091.31
2022-11-25T08:40:52.032Z,97093.56
2022-11-25T08:43:18.787Z,97101.63
2022-11-25T08:45:45.368Z,97104.91
2022-11-25T08:48:12.017Z,97108.44
2022-11-25T08:50:38.702Z,97116.88
2022-11-25T08:53:05.320Z,97116.03
2022-11-25T08:55:32.000Z,97119.97
2022-11-25T08:57:58.598Z,97127.19
2022-11-25T09:00:25.229Z,97144.69
2022-11-25T09:02:51.892Z,97134.00
2022-11-25T09:05:18.563Z,97142.47
2022-11-25T09:07:45.333Z,97152.56
2022-11-25T09:10:14.725Z,97153.81
2022-11-25T09:12:41.328Z,97150.06
2022-11-25T09:15:08.593Z,97149.47
2022-11-25T09:17:35.215Z,97149.06
2022-11-25T09:20:01.845Z,97153.59
2022-11-25T09:22:28.443Z,97147.41
2022-11-25T09:24:55.043Z,97151.31
2022-11-25T09:27:21.630Z,97153.59
2022-11-25T09:29:48.243Z,97151.13
2022-11-25T09:32:14.839Z,97154.00
2022-11-25T09:34:41.464Z,97148.44
2022-11-25T09:37:08.113Z,97153.56
2022-11-25T09:39:35.292Z,97151.75
2022-11-25T09:42:07.869Z,97137.09
2022-11-25T09:44:53.059Z,97125.13
2022-11-25T09:47:28.233Z,97122.66
2022-11-25T09:50:02.766Z,97115.22
2022-11-25T09:52:57.143Z,97118.53
2022-11-25T09:55:25.216Z,97110.69
2022-11-25T09:58:02.127Z,97104.50
2022-11-25T10:00:42.909Z,97112.38
2022-11-25T10:03:18.661Z,97103.69
2022-11-25T10:06:06.005Z,97102.44
2022-11-25T10:08:38.284Z,97105.72
2022-11-25T10:11:28.553Z,97105.31
2022-11-25T10:14:03.361Z,97104.91
2022-11-25T10:16:33.722Z,97114.78
2022-11-25T10:19:20.042Z,97124.13
2022-11-25T10:21:46.705Z,97116.47
2022-11-25T10:24:14.305Z,97111.13
2022-11-25T10:26:43.509Z,97106.34
2022-11-25T10:29:13.061Z,97107.78
2022-11-25T10:31:39.819Z,97109.88
2022-11-25T10:34:25.483Z,97109.84
2022-11-25T10:36:52.127Z,97109.84
2022-11-25T10:39:21.088Z,97114.34
2022-11-25T10:41:56.701Z,97111.84
2022-11-25T10:44:27.216Z,97110.84
2022-11-25T10:47:21.601Z,97104.44
2022-11-25T10:49:51.087Z,97114.66
2022-11-25T10:52:20.888Z,97102.19
2022-11-25T10:55:14.874Z,97116.13
2022-11-25T10:57:41.668Z,97113.66
2022-11-25T11:00:23.808Z,97117.66
2022-11-25T11:02:50.470Z,97108.81
2022-11-25T11:05:20.585Z,97116.97
2022-11-25T11:07:47.277Z,97117.53
2022-11-25T11:10:24.559Z,97115.56
2022-11-25T11:13:03.479Z,97114.50
2022-11-25T11:15:32.061Z,97117.53
2022-11-25T11:18:00.232Z,97118.19
2022-11-25T11:20:30.868Z,97116.28
2022-11-25T11:23:13.016Z,97124.03
2022-11-25T11:25:43.783Z,97123.41
2022-11-25T11:28:35.727Z,97127.81
2022-11-25T11:31:04.222Z,97130.88
2022-11-25T11:33:55.047Z,97132.47
2022-11-25T11:36:48.753Z,97133.09
2022-11-25T11:39:28.544Z,97128.38
2022-11-25T11:42:04.483Z,97134.50
2022-11-25T11:44:55.963Z,97134.56
2022-11-25T11:47:30.621Z,97129.72
2022-11-25T11:50:15.438Z,97139.56
2022-11-25T11:53:19.201Z,97138.91
2022-11-25T11:56:34.056Z,97145.53
2022-11-25T11:59:34.348Z,97151.53
2022-11-25T12:02:21.464Z,97151.09
2022-11-25T12:05:15.662Z,97156.13
2022-11-25T12:07:54.368Z,97153.25
2022-11-25T12:10:39.650Z,97151.81
2022-11-25T12:13:24.798Z,97158.53
2022-11-25T12:16:00.738Z,97162.00
2022-11-25T12:18:48.621Z,97163.25
2022-11-25T12:21:38.711Z,97163.31
2022-11-25T12:24:21.903Z,97170.88
2022-11-25T12:26:53.988Z,97168.16
2022-11-25T12:29:41.365Z,97173.53
2022-11-25T12:32:41.645Z,97162.66
2022-11-25T12:35:11.132Z,97169.91
2022-11-25T12:37:59.141Z,97158.22
2022-11-25T12:40:41.496Z,97159.38
2022-11-25T12:43:16.350Z,97168.56
2022-11-25T12:45:43.089Z,97175.81
2022-11-25T12:48:11.272Z,97176.28
2022-11-25T12:50:48.454Z,97179.81
2022-11-25T12:53:31.256Z,97183.13
2022-11-25T12:55:58.209Z,97179.44
2022-11-25T12:58:45.352Z,97186.84
2022-11-25T13:01:26.767Z,97185.69
2022-11-25T13:04:11.560Z,97195.41
2022-11-25T13:06:48.370Z,97184.09
2022-11-25T13:09:36.359Z,97195.41
2022-11-25T13:12:24.495Z,97198.88
2022-11-25T13:15:29.261Z,97196.44
2022-11-25T13:18:03.243Z,97194.41
2022-11-25T13:20:29.838Z,97195.34
2022-11-25T13:23:05.217Z,97202.16
2022-11-25T13:25:32.463Z,97208.19
2022-11-25T13:28:00.165Z,97211.53
2022-11-25T13:30:32.675Z,97202.78
2022-11-25T13:33:11.360Z,97211.63
2022-11-25T13:35:47.008Z,97204.25
2022-11-25T13:38:36.437Z,97205.00
2022-11-25T13:41:10.192Z,97207.22
2022-11-25T13:43:36.804Z,97213.38
2022-11-25T13:46:03.453Z,97207.38
2022-11-25T13:48:30.693Z,97211.72
2022-11-25T13:51:18.474Z,97212.94
2022-11-25T13:53:56.084Z,97212.16
2022-11-25T13:56:26.958Z,97207.59
2022-11-25T13:59:11.909Z,97215.84
2022-11-25T14:01:39.631Z,97217.97
2022-11-25T14:04:10.485Z,97223.91
2022-11-25T14:07:19.667Z,97229.47
2022-11-25T14:10:11.542Z,97227.59
2022-11-25T14:12:58.692Z,97225.16
2022-11-25T14:16:06.927Z,97234.66
2022-11-25T14:19:21.787Z,97233.47
2022-11-25T14:22:06.725Z,97232.22
2022-11-25T14:24:38.572Z,97235.97
2022-11-25T14:27:05.262Z,97235.97
2022-11-25T14:29:43.911Z,97236.41
2022-11-25T14:32:12.566Z,97231.44
2022-11-25T14:34:41.257Z,97240.81
2022-11-25T14:37:20.143Z,97245.38
2022-11-25T14:39:50.683Z,97246.03
2022-11-25T14:42:18.876Z,97245.47
2022-11-25T14:44:47.914Z,97247.13
2022-11-25T14:47:14.557Z,97256.84
2022-11-25T14:49:51.997Z,97253.38
2022-11-25T14:52:28.895Z,97258.16
2022-11-25T14:54:55.969Z,97253.81
2022-11-25T14:57:27.867Z,97257.75
2022-11-25T14:59:56.208Z,97265.00
2022-11-25T15:02:30.742Z,97266.66
2022-11-25T15:05:08.393Z,97273.09
2022-11-25T15:07:35.098Z,97280.56
2022-11-25T15:10:01.834Z,97280.75
2022-11-25T15:12:31.580Z,97287.81
2022-11-25T15:14:58.236Z,97294.03
2022-11-25T15:17:31.943Z,97288.44
2022-11-25T15:20:01.089Z,97286.63
2022-11-25T15:22:27.755Z,97294.88
2022-11-25T15:24:55.785Z,97295.91
2022-11-25T15:27:27.210Z,97302.56
2022-11-25T15:29:54.623Z,97308.53
2022-11-25T15:32:33.590Z,97313.69
2022-11-25T15:35:01.024Z,97318.66
2022-11-25T15:37:27.896Z,97322.38
2022-11-25T15:40:31.802Z,97319.50
2022-11-25T15:43:01.865Z,97321.34
2022-11-25T15:45:34.112Z,97332.09
2022-11-25T15:48:00.751Z,97334.16
2022-11-25T15:50:27.420Z,97334.75
2022-11-25T15:52:55.761Z,97346.34
2022-11-25T15:55:31.910Z,97354.56
2022-11-25T15:58:04.165Z,97358.50
2022-11-25T16:00:30.735Z,97358.72
2022-11-25T16:02:57.338Z,97362.84
2022-11-25T16:05:35.382Z,97365.94
2022-11-25T16:08:37.501Z,97356.03
2022-11-25T16:11:12.086Z,97369.00
2022-11-25T16:13:39.060Z,97366.53
2022-11-25T16:16:11.588Z,97373.59
2022-11-25T16:18:42.245Z,97379.34
2022-11-25T16:21:13.656Z,97371.72
2022-11-25T16:23:45.901Z,97379.78
2022-11-25T16:26:15.280Z,97388.84
2022-11-25T16:28:49.343Z,97389.25
2022-11-25T16:31:16.653Z,97401.22
2022-11-25T16:33:43.388Z,97407.81
2022-11-25T16:36:10.015Z,97403.66
2022-11-25T16:38:36.698Z,97406.97
2022-11-25T16:41:19.746Z,97410.28
2022-11-25T16:43:46.413Z,97419.78
2022-11-25T16:46:15.557Z,97428.44
2022-11-25T16:48:44.545Z,97434.25
2022-11-25T16:51:19.069Z,97430.72
2022-11-25T16:53:45.806Z,97427.63
2022-11-25T16:56:23.156Z,97439.38
2022-11-25T16:58:50.865Z,97431.53
2022-11-25T17:01:17.764Z,97438.31
2022-11-25T17:03:44.429Z,97444.31
2022-11-25T17:06:21.375Z,97446.38
2022-11-25T17:08:48.836Z,97451.50
2022-11-25T17:11:36.286Z,97446.75
2022-11-25T17:14:05.240Z,97453.56
2022-11-25T17:16:32.139Z,97458.91
2022-11-25T17:18:59.515Z,97459.13
2022-11-25T17:21:26.272Z,97458.91
2022-11-25T17:23:55.275Z,97461.34
2022-11-25T17:26:29.258Z,97466.31
2022-11-25T17:29:00.004Z,97479.91
2022-11-25T17:31:28.372Z,97473.50
2022-11-25T17:33:55.615Z,97472.00
2022-11-25T17:36:22.296Z,97472.84
2022-11-25T17:38:48.908Z,97485.25
2022-11-25T17:41:17.175Z,97485.63
2022-11-25T17:43:44.284Z,97491.97
2022-11-25T17:46:11.435Z,97487.56
2022-11-25T17:48:38.900Z,97484.41
2022-11-25T17:51:07.586Z,97489.13
2022-11-25T17:53:34.701Z,97486.25
2022-11-25T17:56:01.442Z,97497.41
2022-11-25T17:58:28.166Z,97501.53
2022-11-25T18:00:54.888Z,97506.06
2022-11-25T18:03:21.555Z,97505.25
2022-11-25T18:05:48.166Z,97506.16
2022-11-25T18:08:14.801Z,97508.19
2022-11-25T18:10:41.400Z,97512.63
2022-11-25T18:13:08.003Z,97512.00
2022-11-25T18:15:34.622Z,97516.38
2022-11-25T18:18:03.201Z,97517.38
2022-11-25T18:20:29.890Z,97512.91
2022-11-25T18:22:56.502Z,97523.31
2022-11-25T18:25:24.480Z,97525.81
2022-11-25T18:27:51.444Z,97526.69
2022-11-25T18:30:20.020Z,97536.28
2022-11-25T18:32:46.901Z,97534.22
2022-11-25T18:35:22.093Z,97538.16
2022-11-25T18:37:48.715Z,97544.00
2022-11-25T18:40:15.394Z,97552.44
2022-11-25T18:42:42.767Z,97557.41
2022-11-25T18:45:20.546Z,97561.09
2022-11-25T18:47:47.286Z,97563.72
2022-11-25T18:50:15.225Z,97561.22
2022-11-25T18:52:42.031Z,97564.22
2022-11-25T18:55:09.009Z,97566.78
2022-11-25T18:57:35.623Z,97565.63
2022-11-25T19:00:31.584Z,97584.00
2022-11-25T19:02:49.511Z,97584.28
2022-11-25T19:05:21.577Z,97585.75
2022-11-25T19:07:48.898Z,97589.25
2022-11-25T19:10:16.279Z,97589.16
2022-11-25T19:12:44.663Z,97594.72
2022-11-25T19:15:12.735Z,97598.59
2022-11-25T19:17:42.589Z,97600.28
2022-11-25T19:20:16.429Z,97601.63
2022-11-25T19:22:43.065Z,97608.44
2022-11-25T19:25:10.049Z,97605.50
2022-11-25T19:27:38.796Z,97602.66
2022-11-25T19:30:06.150Z,97616.44
2022-11-25T19:32:32.782Z,97619.28
2022-11-25T19:35:04.471Z,97617.38
2022-11-25T19:37:31.134Z,97620.00
2022-11-25T19:39:57.917Z,97618.34
2022-11-25T19:42:24.558Z,97618.47
2022-11-25T19:44:51.236Z,97625.06
2022-11-25T19:47:20.597Z,97630.53
2022-11-25T19:49:47.413Z,97633.84
2022-11-25T19:52:21.243Z,97637.47
2022-11-25T19:54:47.949Z,97653.09
2022-11-25T19:57:19.920Z,97657.97
2022-11-25T19:59:46.517Z,97658.25
2022-11-25T20:02:21.129Z,97674.59
2022-11-25T20:04:48.727Z,97677.34
2022-11-25T20:07:16.944Z,97670.63
2022-11-25T20:09:43.653Z,97682.13
2022-11-25T20:12:24.289Z,97684.81
2022-11-25T20:14:51.021Z,97687.06
2022-11-25T20:17:31.838Z,97688.53
2022-11-25T20:20:16.553Z,97699.41
2022-11-25T20:22:49.395Z,97692.16
2022-11-25T20:25:16.054Z,97695.75
2022-11-25T20:27:42.705Z,97698.69
2022-11-25T20:30:23.709Z,97703.16
2022-11-25T20:32:50.379Z,97704.97
2022-11-25T20:35:17.240Z,97704.72
2022-11-25T20:37:43.911Z,97710.25
2022-11-25T20:40:15.557Z,97713.59
2022-11-25T20:42:42.328Z,97714.69
2022-11-25T20:45:16.972Z,97719.13
2022-11-25T20:47:43.904Z,97720.13
2022-11-25T20:50:12.460Z,97721.44
2022-11-25T20:52:39.054Z,97727.44
2022-11-25T20:55:16.485Z,97731.59
2022-11-25T20:57:43.131Z,97721.06
2022-11-25T21:00:17.484Z,97730.56
2022-11-25T21:02:44.226Z,97726.59
2022-11-25T21:05:10.985Z,97726.97
2022-11-25T21:07:37.644Z,97730.41
2022-11-25T21:10:19.604Z,97741.94
2022-11-25T21:12:46.474Z,97738.41
2022-11-25T21:15:15.094Z,97736.47
2022-11-25T21:17:41.758Z,97735.38
2022-11-25T21:20:08.940Z,97742.94
2022-11-25T21:22:39.742Z,97748.22
2022-11-25T21:25:11.417Z,97747.25
2022-11-25T21:27:38.039Z,97742.03
2022-11-25T21:30:05.169Z,97755.22
2022-11-25T21:32:31.844Z,97758.53
2022-11-25T21:34:58.515Z,97764.06
2022-11-25T21:37:30.254Z,97765.09
2022-11-25T21:39:57.924Z,97766.56
2022-11-25T21:42:24.515Z,97759.84
2022-11-25T21:44:51.156Z,97763.25
2022-11-25T21:47:26.238Z,97760.84
2022-11-25T21:49:52.912Z,97769.88
2022-11-25T21:52:19.520Z,97764.91
2022-11-25T21:54:46.185Z,97767.66
2022-11-25T21:57:20.555Z,97765.28
2022-11-25T21:59:47.270Z,97769.50
2022-11-25T22:02:22.043Z,97774.44
2022-11-25T22:04:48.863Z,97770.28
2022-11-25T22:07:15.621Z,97760.75
2022-11-25T22:09:42.418Z,97765.63
2022-11-25T22:12:28.821Z,97761.88
2022-11-25T22:14:55.837Z,97763.34
2022-11-25T22:17:22.452Z,97771.91
2022-11-25T22:19:49.085Z,97781.31
2022-11-25T22:22:17.787Z,97778.91
2022-11-25T22:24:44.786Z,97784.28
2022-11-25T22:27:26.253Z,97784.19
2022-11-25T22:29:55.887Z,97788.41
2022-11-25T22:32:22.484Z,97786.75
2022-11-25T22:34:49.081Z,97791.88
2022-11-25T22:37:20.344Z,97793.13
2022-11-25T22:39:47.192Z,97796.25
2022-11-25T22:42:29.705Z,97796.34
2022-11-25T22:44:56.469Z,97802.72
2022-11-25T22:47:42.732Z,97802.91
2022-11-25T22:50:17.786Z,97800.97
2022-11-25T22:52:44.424Z,97809.75
2022-11-25T22:55:18.279Z,97809.38
2022-11-25T22:57:44.943Z,97812.84
2022-11-25T23:00:15.728Z,97815.59
2022-11-25T23:02:42.328Z,97820.06
2022-11-25T23:05:32.112Z,97817.72
2022-11-25T23:07:59.663Z,97811.72
2022-11-25T23:10:29.520Z,97813.41
2022-11-25T23:12:56.157Z,97811.25
2022-11-25T23:15:23.234Z,97811.09
2022-11-25T23:17:59.825Z,97820.44
2022-11-25T23:20:29.555Z,97811.41
2022-11-25T23:22:56.399Z,97813.44
2022-11-25T23:25:23.280Z,97822.31
2022-11-25T23:27:49.876Z,97826.31
2022-11-25T23:30:22.913Z,97827.88
2022-11-25T23:32:50.335Z,97834.09
2022-11-25T23:35:18.958Z,97841.59
2022-11-25T23:37:47.654Z,97835.78
2022-11-25T23:40:17.337Z,97833.94
2022-11-25T23:42:43.952Z,97833.41
2022-11-25T23:45:13.592Z,97830.50
2022-11-25T23:47:40.246Z,97825.81
2022-11-25T23:50:07.261Z,97824.16
2022-11-25T23:52:33.856Z,97829.03
2022-11-25T23:55:00.452Z,97839.38
2022-11-25T23:57:30.150Z,97834.16
2022-11-25T23:59:56.758Z,97840.00
